Time;durP1;ratioP1;P1;durP2;ratioP2;P2;SDS_P1;SDS_P2;PMS_P1;PMS_P2;Temp;Humidity;BMP_temperature;BMP_pressure;BME280_temperature;BME280_humidity;BME280_pressure;Samples;Min_cycle;Max_cycle;Signal;HPM_P1;HPM_P2
2021/11/17 02:28:22;;;;;;;3.28;2.22;;;20.00;45.20;;;;;;5030952;28;20091;-54
2021/11/17 02:31:18;;;;;;;3.53;2.53;;;20.00;45.20;;;;;;5030493;28;20456;-53
2021/11/17 02:34:09;;;;;;;2.90;2.20;;;20.00;45.20;;;;;;5031142;28;20037;-53
2021/11/17 02:37:01;;;;;;;3.10;2.28;;;20.00;45.10;;;;;;5030528;28;20048;-53
2021/11/17 02:39:45;;;;;;;3.78;2.45;;;20.00;45.20;;;;;;5030434;28;20079;-53
2021/11/17 02:42:22;;;;;;;3.25;2.50;;;20.00;45.10;;;;;;5030424;28;20029;-54
2021/11/17 02:45:10;;;;;;;2.25;1.80;;;20.00;45.10;;;;;;5030645;28;20099;-54
2021/11/17 02:47:58;;;;;;;2.42;2.13;;;20.00;45.10;;;;;;5030262;28;20021;-53
2021/11/17 02:50:49;;;;;;;2.65;1.98;;;20.00;45.00;;;;;;5030301;28;20041;-53
2021/11/17 02:53:30;;;;;;;2.88;2.08;;;20.00;45.20;;;;;;5027593;28;20033;-54
2021/11/17 02:56:33;;;;;;;2.53;1.98;;;20.00;45.10;;;;;;5030473;28;20030;-54
2021/11/17 02:59:35;;;;;;;3.88;2.40;;;19.90;45.10;;;;;;5030167;28;20025;-54
2021/11/17 03:02:07;;;;;;;3.33;2.47;;;20.00;45.20;;;;;;5030121;28;20025;-53
2021/11/17 03:04:32;;;;;;;2.28;1.75;;;19.90;45.10;;;;;;5030135;28;20026;-53
2021/11/17 03:07:14;;;;;;;3.35;2.40;;;19.90;45.00;;;;;;5030446;28;20038;-54
2021/11/17 03:10:14;;;;;;;2.60;2.00;;;19.90;45.10;;;;;;5029745;28;20151;-53
2021/11/17 03:12:45;;;;;;;2.85;2.10;;;19.90;45.10;;;;;;5030137;28;20284;-54
2021/11/17 03:15:31;;;;;;;3.20;1.88;;;19.90;45.00;;;;;;5030269;28;20021;-53
2021/11/17 03:18:12;;;;;;;3.15;2.30;;;19.90;45.00;;;;;;5025638;28;20041;-53
2021/11/17 03:20:46;;;;;;;2.33;2.05;;;20.00;45.10;;;;;;5030358;28;20033;-53
2021/11/17 03:23:39;;;;;;;2.65;1.80;;;20.00;45.10;;;;;;5029993;28;20416;-53
2021/11/17 03:26:13;;;;;;;3.70;2.42;;;19.90;45.10;;;;;;5029867;28;20465;-54
2021/11/17 03:28:56;;;;;;;2.63;2.17;;;19.90;45.00;;;;;;5029663;28;20041;-53
2021/11/17 03:31:30;;;;;;;3.97;2.10;;;19.90;45.00;;;;;;5030297;28;20120;-53
2021/11/17 03:34:18;;;;;;;3.72;2.33;;;19.90;45.00;;;;;;5030093;28;20117;-53
2021/11/17 03:37:25;;;;;;;2.25;1.92;;;19.90;45.10;;;;;;5029745;28;20493;-54
2021/11/17 03:40:28;;;;;;;2.47;1.80;;;19.90;45.10;;;;;;5026820;28;20037;-53
2021/11/17 03:42:59;;;;;;;2.88;2.00;;;19.90;45.10;;;;;;5029934;28;20101;-54
2021/11/17 03:45:55;;;;;;;2.42;2.00;;;19.90;45.00;;;;;;5030085;28;20036;-53
2021/11/17 03:48:20;;;;;;;3.47;2.22;;;19.90;45.10;;;;;;5029870;28;20078;-53
2021/11/17 03:51:08;;;;;;;2.63;1.98;;;19.90;45.00;;;;;;5029700;28;20045;-54
2021/11/17 03:53:49;;;;;;;3.38;2.15;;;19.90;45.10;;;;;;5029868;28;20026;-53
2021/11/17 03:56:14;;;;;;;3.05;2.05;;;19.90;45.10;;;;;;5029876;28;20112;-54
2021/11/17 03:58:55;;;;;;;2.83;2.00;;;19.90;45.10;;;;;;5029879;28;20195;-53
2021/11/17 04:01:39;;;;;;;2.05;1.70;;;19.90;45.00;;;;;;5029999;28;20029;-54
2021/11/17 04:04:08;;;;;;;2.50;1.90;;;19.90;45.00;;;;;;5029677;28;20113;-53
2021/11/17 04:06:55;;;;;;;2.60;2.00;;;19.80;45.00;;;;;;5029626;28;20034;-54
2021/11/17 04:09:33;;;;;;;2.40;2.00;;;19.90;45.10;;;;;;5029400;28;20451;-53
2021/11/17 04:12:28;;;;;;;3.15;1.80;;;19.90;45.10;;;;;;5029709;28;20021;-53
2021/11/17 04:15:26;;;;;;;2.30;1.73;;;19.90;45.20;;;;;;5029895;28;20038;-53
2021/11/17 04:18:13;;;;;;;2.30;1.55;;;19.80;45.10;;;;;;5029562;28;20034;-54
2021/11/17 04:20:47;;;;;;;2.60;1.98;;;19.80;45.00;;;;;;5029402;28;20025;-54
2021/11/17 04:23:31;;;;;;;2.63;1.98;;;19.80;45.10;;;;;;5029535;28;20120;-54
2021/11/17 04:26:14;;;;;;;2.92;1.90;;;19.80;45.00;;;;;;5029727;28;20014;-53
2021/11/17 04:28:49;;;;;;;;;;;19.80;45.10;;;;;;5029723;28;20502;-53
2021/11/17 04:31:57;;;;;;;2.15;1.73;;;19.80;45.20;;;;;;5029128;28;19924;-54
2021/11/17 04:34:36;;;;;;;2.67;1.60;;;19.80;45.20;;;;;;5020588;28;20347;-53
2021/11/17 04:37:25;;;;;;;2.42;1.63;;;19.70;45.10;;;;;;5030248;28;20021;-54
2021/11/17 04:40:27;;;;;;;2.25;1.73;;;19.80;45.20;;;;;;5032642;28;20021;-53
2021/11/17 04:43:10;;;;;;;2.42;1.80;;;19.80;45.30;;;;;;5031130;28;20059;-53
2021/11/17 04:45:57;;;;;;;2.10;1.70;;;19.70;45.20;;;;;;5032465;28;20058;-53
2021/11/17 04:48:32;;;;;;;3.35;2.22;;;19.70;45.20;;;;;;5032920;28;20390;-53
2021/11/17 04:51:31;;;;;;;2.47;1.90;;;19.70;45.10;;;;;;5031181;28;20030;-53
2021/11/17 04:54:06;;;;;;;3.17;2.20;;;19.80;45.30;;;;;;5032350;28;20451;-54
2021/11/17 04:56:56;;;;;;;2.28;1.50;;;19.80;45.20;;;;;;5032503;28;20075;-53
2021/11/17 04:59:31;;;;;;;3.13;1.98;;;19.80;45.30;;;;;;5032740;28;20026;-53
2021/11/17 05:02:04;;;;;;;2.72;1.77;;;19.80;45.20;;;;;;5030937;28;20037;-53
2021/11/17 05:05:00;;;;;;;1.90;1.50;;;19.70;45.10;;;;;;5032278;28;20021;-53
2021/11/17 05:08:03;;;;;;;2.13;1.65;;;19.80;45.30;;;;;;5032387;28;20052;-53
2021/11/17 05:10:47;;;;;;;2.13;1.60;;;19.70;45.20;;;;;;5032542;28;20034;-54
2021/11/17 05:13:38;;;;;;;2.47;1.77;;;19.80;45.30;;;;;;5032591;28;20033;-53
2021/11/17 05:16:28;;;;;;;2.92;1.92;;;19.70;45.20;;;;;;5032043;28;20116;-54
2021/11/17 05:19:21;;;;;;;2.38;1.60;;;19.70;45.20;;;;;;5032089;28;20079;-53
2021/11/17 05:22:18;;;;;;;1.85;1.30;;;19.70;45.20;;;;;;5032235;28;20041;-54
2021/11/17 05:25:12;;;;;;;2.40;1.33;;;19.70;45.20;;;;;;5032201;28;20037;-53
2021/11/17 05:27:56;;;;;;;3.22;1.95;;;19.70;45.20;;;;;;5030407;28;20107;-53
2021/11/17 05:30:37;;;;;;;2.53;1.63;;;19.70;45.20;;;;;;5031736;28;20045;-53
2021/11/17 05:33:27;;;;;;;2.45;1.70;;;19.70;45.20;;;;;;5032329;28;20109;-53
2021/11/17 05:36:20;;;;;;;2.47;1.70;;;19.70;45.20;;;;;;5031487;28;20052;-53
2021/11/17 05:38:55;;;;;;;;;;;19.70;45.30;;;;;;5032521;28;20045;-54
2021/11/17 05:41:44;;;;;;;2.78;1.58;;;19.70;45.40;;;;;;5032138;28;19992;-53
2021/11/17 05:44:43;;;;;;;2.13;1.80;;;19.60;45.30;;;;;;5031945;28;20051;-53
2021/11/17 05:47:33;;;;;;;2.45;1.77;;;19.70;45.40;;;;;;5031653;28;20056;-53
2021/11/17 05:50:27;;;;;;;2.45;1.60;;;19.60;45.30;;;;;;5031680;28;20037;-54
2021/11/17 05:53:12;;;;;;;3.08;2.05;;;19.60;45.30;;;;;;5030948;28;20122;-54
2021/11/17 05:56:08;;;;;;;2.22;1.67;;;19.60;45.20;;;;;;5031667;28;20112;-53
2021/11/17 05:58:40;;;;;;;2.50;1.67;;;19.60;45.30;;;;;;5031412;28;20076;-53
2021/11/17 06:01:34;;;;;;;2.95;2.00;;;19.60;45.20;;;;;;5031181;28;20040;-54
2021/11/17 06:04:00;;;;;;;2.38;1.67;;;19.60;45.30;;;;;;5031488;28;20025;-53
2021/11/17 06:06:25;;;;;;;1.52;1.42;;;19.70;45.30;;;;;;5031172;28;20117;-53
2021/11/17 06:08:54;;;;;;;2.00;1.50;;;19.60;45.20;;;;;;5030870;28;20113;-53
2021/11/17 06:11:21;;;;;;;2.47;2.00;;;19.70;45.20;;;;;;5031311;28;20649;-54
2021/11/17 06:13:46;;;;;;;2.63;1.65;;;19.60;45.20;;;;;;5029816;28;20056;-53
2021/11/17 06:16:12;;;;;;;1.95;1.55;;;19.60;45.10;;;;;;5030898;28;20480;-54
2021/11/17 06:18:37;;;;;;;2.00;1.80;;;19.70;45.20;;;;;;5029832;28;20025;-54
2021/11/17 06:21:05;;;;;;;2.75;1.90;;;19.70;45.30;;;;;;5029401;28;20025;-54
2021/11/17 06:23:43;;;;;;;2.60;1.85;;;19.70;45.20;;;;;;5012860;28;20052;-53
2021/11/17 06:26:09;;;;;;;2.10;1.58;;;19.70;45.20;;;;;;5029608;28;20103;-53
2021/11/17 06:28:36;;;;;;;2.33;1.80;;;19.70;45.10;;;;;;5029723;28;20037;-54
2021/11/17 06:31:01;;;;;;;2.25;1.80;;;19.70;45.20;;;;;;5029330;28;20045;-54
2021/11/17 06:33:27;;;;;;;2.35;1.90;;;19.70;45.20;;;;;;5031147;28;20080;-54
2021/11/17 06:35:52;;;;;;;2.88;1.80;;;19.70;45.20;;;;;;5030790;28;20483;-54
2021/11/17 06:38:19;;;;;;;3.22;2.28;;;19.70;45.20;;;;;;5030998;28;20511;-53
2021/11/17 06:40:45;;;;;;;2.05;1.42;;;19.70;45.20;;;;;;5030480;28;20112;-54
2021/11/17 06:43:12;;;;;;;1.70;1.20;;;19.70;45.20;;;;;;5029615;28;20121;-54
2021/11/17 06:45:38;;;;;;;2.00;1.52;;;19.80;45.30;;;;;;5029399;28;20030;-56
2021/11/17 06:48:04;;;;;;;2.13;1.60;;;19.80;45.20;;;;;;5030891;28;20053;-53
2021/11/17 06:50:30;;;;;;;2.03;1.42;;;19.90;45.20;;;;;;5030528;28;20038;-54
2021/11/17 06:52:56;;;;;;;2.60;1.85;;;19.90;45.10;;;;;;5029018;28;20055;-54
2021/11/17 06:55:21;;;;;;;1.45;1.25;;;20.00;45.00;;;;;;5030507;28;20026;-54
2021/11/17 06:57:47;;;;;;;2.20;1.52;;;20.10;45.00;;;;;;5030418;28;20068;-54
2021/11/17 07:00:14;;;;;;;2.15;1.50;;;20.10;44.80;;;;;;5028829;28;20117;-54
2021/11/17 07:02:40;;;;;;;2.15;1.48;;;20.20;44.70;;;;;;5018085;28;20365;-54
2021/11/17 07:05:06;;;;;;;2.95;2.30;;;20.30;44.60;;;;;;5008915;28;20033;-54
2021/11/17 07:07:31;;;;;;;3.05;1.83;;;20.40;44.60;;;;;;5002219;28;20034;-54
2021/11/17 07:09:57;;;;;;;2.20;1.60;;;20.40;44.50;;;;;;5007799;28;20029;-54
2021/11/17 07:12:23;;;;;;;2.55;1.85;;;20.50;44.30;;;;;;5010804;28;20044;-54
2021/11/17 07:14:48;;;;;;;2.22;1.38;;;20.60;44.20;;;;;;5010671;28;20076;-54
2021/11/17 07:17:14;;;;;;;1.83;1.30;;;20.60;44.10;;;;;;5010021;28;20058;-54
2021/11/17 07:19:40;;;;;;;1.75;1.55;;;20.70;44.00;;;;;;5010509;28;20080;-54
2021/11/17 07:22:07;;;;;;;1.75;1.58;;;20.80;43.90;;;;;;5010354;28;20072;-54
2021/11/17 07:24:33;;;;;;;2.13;1.60;;;20.90;43.80;;;;;;5010284;28;20048;-54
2021/11/17 07:26:58;;;;;;;1.55;1.35;;;21.00;43.60;;;;;;5010259;28;20026;-54
2021/11/17 07:29:24;;;;;;;1.75;1.40;;;21.00;43.50;;;;;;5010204;28;20057;-54
2021/11/17 07:31:49;;;;;;;1.77;1.30;;;21.10;43.40;;;;;;5008695;28;20480;-54
2021/11/17 07:34:15;;;;;;;3.38;1.65;;;21.20;43.40;;;;;;5010349;28;20037;-54
2021/11/17 07:36:41;;;;;;;2.70;1.45;;;21.20;43.20;;;;;;5010281;28;20101;-54
2021/11/17 07:39:07;;;;;;;2.58;1.92;;;21.30;43.10;;;;;;5009891;28;20103;-54
2021/11/17 07:41:32;;;;;;;3.63;1.85;;;21.40;43.00;;;;;;5010445;28;20036;-54
2021/11/17 07:43:58;;;;;;;2.28;1.70;;;21.50;43.00;;;;;;5010274;28;20022;-55
2021/11/17 07:46:24;;;;;;;3.17;1.58;;;21.50;42.80;;;;;;5010405;28;20036;-55
2021/11/17 07:48:51;;;;;;;2.88;1.63;;;21.60;42.80;;;;;;5010090;28;20049;-55
2021/11/17 07:51:17;;;;;;;2.15;1.67;;;21.70;42.70;;;;;;5010575;28;20042;-55
2021/11/17 07:53:43;;;;;;;2.80;1.60;;;21.80;42.50;;;;;;5009857;28;20030;-55
2021/11/17 07:56:08;;;;;;;1.92;1.40;;;21.80;42.40;;;;;;5010265;28;20080;-55
2021/11/17 07:58:37;;;;;;;2.85;1.63;;;21.90;42.40;;;;;;5025035;28;20122;-55
2021/11/17 08:01:04;;;;;;;26.13;21.17;;;22.00;42.30;;;;;;5025137;28;20056;-56
2021/11/17 08:03:31;;;;;;;26.25;21.83;;;22.00;42.20;;;;;;4992086;28;20275;-56
2021/11/17 08:05:57;;;;;;;24.02;19.60;;;22.10;42.10;;;;;;5008673;28;20033;-55
2021/11/17 08:08:22;;;;;;;14.25;10.68;;;22.10;42.00;;;;;;5024817;28;20033;-56
2021/11/17 08:10:48;;;;;;;8.98;6.65;;;22.10;42.00;;;;;;5008175;28;20508;-55
2021/11/17 08:13:17;;;;;;;9.07;6.45;;;22.20;41.90;;;;;;5028199;28;20021;-55
2021/11/17 08:15:42;;;;;;;10.52;7.28;;;22.20;41.90;;;;;;5013566;28;20377;-55
2021/11/17 08:18:08;;;;;;;8.50;6.35;;;22.20;41.80;;;;;;5013812;28;20096;-57
2021/11/17 08:20:33;;;;;;;8.55;6.95;;;22.30;41.80;;;;;;5013458;28;20361;-55
2021/11/17 08:22:59;;;;;;;8.52;6.22;;;22.30;41.80;;;;;;5013149;28;20379;-55
2021/11/17 08:25:26;;;;;;;9.38;6.70;;;22.30;41.80;;;;;;5013576;28;20398;-56
2021/11/17 08:27:52;;;;;;;9.45;7.28;;;22.20;41.70;;;;;;5013327;28;20080;-55
2021/11/17 08:30:18;;;;;;;8.35;7.22;;;22.20;41.70;;;;;;5012887;28;20049;-56
2021/11/17 08:32:44;;;;;;;11.60;8.77;;;22.30;41.80;;;;;;5013271;28;20063;-57
2021/11/17 08:35:10;;;;;;;16.23;9.20;;;22.30;41.80;;;;;;5013381;28;20056;-57
2021/11/17 08:37:36;;;;;;;16.13;9.07;;;22.30;41.80;;;;;;5013291;28;20490;-56
2021/11/17 08:40:04;;;;;;;18.15;9.95;;;22.30;41.80;;;;;;5012981;28;20038;-56
2021/11/17 08:42:29;;;;;;;21.92;11.13;;;22.40;41.80;;;;;;5013332;28;20036;-57
2021/11/17 08:44:55;;;;;;;15.75;9.75;;;22.40;41.80;;;;;;5012758;28;20113;-57
2021/11/17 08:47:21;;;;;;;18.95;9.35;;;22.40;41.70;;;;;;5012872;28;20048;-57
2021/11/17 08:49:46;;;;;;;14.93;9.00;;;22.50;41.70;;;;;;5012989;28;20491;-56
2021/11/17 08:52:12;;;;;;;16.73;9.80;;;22.50;41.60;;;;;;5013153;28;20536;-56
2021/11/17 08:54:37;;;;;;;16.63;9.55;;;22.60;41.70;;;;;;5013145;28;20084;-56
2021/11/17 08:57:04;;;;;;;22.85;10.13;;;22.60;41.50;;;;;;5012545;28;20424;-56
2021/11/17 08:59:31;;;;;;;22.60;9.90;;;22.60;41.50;;;;;;5012982;28;20030;-56
2021/11/17 09:02:01;;;;;;;17.85;9.95;;;22.70;41.50;;;;;;5012698;28;20033;-53
2021/11/17 09:04:26;;;;;;;22.35;11.05;;;22.70;41.40;;;;;;5012792;28;20045;-53
2021/11/17 09:06:51;;;;;;;17.38;9.30;;;22.80;41.40;;;;;;5012511;28;20048;-53
2021/11/17 09:09:20;;;;;;;15.85;8.68;;;22.80;41.30;;;;;;5027480;28;20064;-53
2021/11/17 09:11:59;;;;;;;18.50;9.50;;;22.80;41.40;;;;;;5028043;28;20040;-54
2021/11/17 09:14:25;;;;;;;21.00;9.25;;;22.80;41.40;;;;;;5012886;28;20029;-53
2021/11/17 09:16:50;;;;;;;19.65;10.55;;;22.80;41.30;;;;;;5013316;28;20018;-54
2021/11/17 09:19:17;;;;;;;21.95;10.48;;;22.80;41.30;;;;;;5013074;28;20105;-55
2021/11/17 09:21:43;;;;;;;21.08;10.15;;;22.80;41.30;;;;;;5027543;28;20430;-55
2021/11/17 09:24:09;;;;;;;19.95;10.43;;;22.70;41.30;;;;;;5027602;28;20032;-53
2021/11/17 09:26:36;;;;;;;20.15;10.90;;;22.70;41.30;;;;;;5012732;28;20096;-54
2021/11/17 09:29:03;;;;;;;22.67;10.93;;;22.70;41.40;;;;;;5011797;28;20520;-54
2021/11/17 09:31:29;;;;;;;21.42;10.23;;;22.70;41.40;;;;;;5012651;28;20034;-54
2021/11/17 09:33:55;;;;;;;24.35;11.38;;;22.70;41.40;;;;;;5012036;28;20022;-54
2021/11/17 09:36:22;;;;;;;25.92;10.93;;;22.70;41.50;;;;;;5012111;28;20022;-54
2021/11/17 09:38:50;;;;;;;22.15;11.48;;;22.60;41.50;;;;;;5012105;28;20479;-54
2021/11/17 09:41:17;;;;;;;23.58;11.68;;;22.70;41.50;;;;;;5012497;28;20105;-54
2021/11/17 09:43:46;;;;;;;24.77;10.27;;;22.60;41.60;;;;;;5027397;28;20146;-53
2021/11/17 09:46:12;;;;;;;22.65;11.15;;;22.60;41.60;;;;;;5012398;28;20413;-55
2021/11/17 09:48:48;;;;;;;19.30;10.20;;;22.70;41.70;;;;;;5011974;28;20044;-53
2021/11/17 09:51:20;;;;;;;20.35;9.85;;;22.70;42.00;;;;;;5027270;28;20172;-54
2021/11/17 09:53:54;;;;;;;20.73;11.40;;;22.70;41.70;;;;;;5010249;28;20345;-56
2021/11/17 09:56:39;;;;;;;20.92;12.93;;;22.70;41.70;;;;;;5027116;28;20021;-53
2021/11/17 09:59:13;;;;;;;32.30;19.25;;;22.80;42.20;;;;;;5025823;28;20031;-58
2021/11/17 10:01:55;;;;;;;23.83;11.60;;;22.80;41.80;;;;;;5026927;28;20333;-53
2021/11/17 10:04:25;;;;;;;19.25;10.63;;;22.80;41.80;;;;;;5010399;28;20026;-55
2021/11/17 10:10:17;;;;;;;22.45;12.32;;;23.00;41.70;;;;;;5010189;28;20038;-55
2021/11/17 10:13:12;;;;;;;25.60;12.85;;;23.00;41.60;;;;;;5011382;28;20034;-56
2021/11/17 10:15:39;;;;;;;28.35;13.77;;;23.00;41.50;;;;;;5021687;28;20041;-56
2021/11/17 10:18:17;;;;;;;28.35;13.43;;;23.00;41.40;;;;;;5010916;28;20030;-55
2021/11/17 10:20:49;;;;;;;26.05;11.48;;;23.00;41.80;;;;;;5011344;28;20050;-55
2021/11/17 10:23:22;;;;;;;;;;;23.00;41.60;;;;;;5011727;28;20028;-56
2021/11/17 10:25:53;;;;;;;27.33;12.50;;;23.00;42.80;;;;;;5010907;28;19947;-56
2021/11/17 10:28:35;;;;;;;23.73;11.52;;;23.00;41.60;;;;;;5011038;28;20364;-56
2021/11/17 10:31:10;;;;;;;19.67;10.25;;;22.90;41.60;;;;;;5010337;28;20081;-56
2021/11/17 10:33:47;;;;;;;21.10;10.23;;;23.00;41.80;;;;;;5010365;28;20084;-55
2021/11/17 10:36:42;;;;;;;21.73;10.10;;;23.00;41.70;;;;;;5009341;28;20032;-54
2021/11/17 10:39:18;;;;;;;22.33;10.68;;;22.90;41.60;;;;;;5010207;28;20169;-56
2021/11/17 10:41:58;;;;;;;18.10;9.50;;;22.90;41.90;;;;;;5010699;28;20041;-60
2021/11/17 10:44:42;;;;;;;23.52;9.77;;;22.90;41.80;;;;;;5008989;28;20163;-56
2021/11/17 10:47:22;;;;;;;15.52;9.55;;;22.90;42.00;;;;;;5010342;28;20018;-56
2021/11/17 10:50:10;;;;;;;20.33;9.48;;;22.80;41.80;;;;;;5010108;28;20448;-55
2021/11/17 10:52:51;;;;;;;20.58;9.25;;;22.90;41.80;;;;;;5010205;28;20110;-56
2021/11/17 10:55:39;;;;;;;21.15;9.13;;;22.80;42.10;;;;;;5010012;28;20030;-55
2021/11/17 10:58:05;;;;;;;18.48;8.77;;;22.80;42.10;;;;;;5024094;28;20101;-55
2021/11/17 11:00:37;;;;;;;18.85;9.07;;;22.80;42.00;;;;;;5008719;28;20076;-56
2021/11/17 11:03:03;;;;;;;17.25;8.77;;;22.80;42.00;;;;;;5010216;28;20041;-56
2021/11/17 11:05:32;;;;;;;19.17;9.05;;;22.80;42.00;;;;;;5009211;28;20029;-56
2021/11/17 11:08:12;;;;;;;17.13;8.20;;;22.80;42.10;;;;;;5025385;28;20026;-57
2021/11/17 11:10:42;;;;;;;19.05;7.63;;;22.80;42.10;;;;;;5010299;28;20106;-57
2021/11/17 11:13:13;;;;;;;14.00;7.40;;;22.80;42.10;;;;;;5010288;28;20112;-57
2021/11/17 11:15:47;;;;;;;17.92;7.93;;;22.80;42.20;;;;;;4992459;28;20029;-58
2021/11/17 11:18:13;;;;;;;17.73;7.25;;;22.80;42.40;;;;;;4992590;28;20546;-57
2021/11/17 11:20:47;;;;;;;12.93;7.10;;;22.80;42.10;;;;;;5010168;28;20026;-57
2021/11/17 11:23:30;;;;;;;13.93;7.00;;;22.90;42.30;;;;;;5009900;28;20342;-57
2021/11/17 11:26:13;;;;;;;14.90;7.28;;;23.00;42.20;;;;;;5009843;28;20088;-56
2021/11/17 11:28:48;;;;;;;;;;;23.00;42.10;;;;;;5010460;28;20464;-57
2021/11/17 11:31:19;;;;;;;11.60;6.03;;;23.00;42.60;;;;;;5009829;28;19924;-57
2021/11/17 11:33:49;;;;;;;11.60;6.47;;;23.00;42.10;;;;;;5010181;28;20424;-57
2021/11/17 11:36:14;;;;;;;12.70;6.85;;;23.00;42.00;;;;;;5010062;28;20022;-56
2021/11/17 11:38:47;;;;;;;21.58;14.38;;;23.10;42.00;;;;;;5009903;28;20101;-56
2021/11/17 11:41:35;;;;;;;19.33;12.75;;;23.10;42.10;;;;;;5024350;28;20432;-57
2021/11/17 11:44:19;;;;;;;27.67;16.77;;;23.10;42.10;;;;;;5009891;28;20508;-55
2021/11/17 11:46:57;;;;;;;21.95;14.27;;;23.10;42.20;;;;;;5012415;28;20068;-55
2021/11/17 11:49:42;;;;;;;17.45;11.93;;;23.10;42.10;;;;;;5014246;28;20195;-56
2021/11/17 11:52:20;;;;;;;13.63;9.32;;;23.10;42.20;;;;;;5013403;28;20028;-55
2021/11/17 11:54:51;;;;;;;13.77;9.57;;;23.10;42.10;;;;;;5013694;28;20018;-56
2021/11/17 11:57:23;;;;;;;11.80;8.57;;;23.10;42.10;;;;;;5013801;28;20156;-54
2021/11/17 11:59:50;;;;;;;13.20;9.43;;;23.10;42.00;;;;;;5013287;28;20092;-54
2021/11/17 12:02:19;;;;;;;11.65;8.45;;;23.10;42.00;;;;;;5028437;28;20026;-55
2021/11/17 12:04:53;;;;;;;12.18;7.82;;;23.10;42.00;;;;;;5013515;28;20033;-55
2021/11/17 12:07:25;;;;;;;16.42;9.18;;;23.10;42.00;;;;;;5013167;28;20022;-56
2021/11/17 12:10:12;;;;;;;12.50;8.10;;;23.10;42.00;;;;;;5013266;28;20491;-56
2021/11/17 12:12:41;;;;;;;16.02;9.68;;;23.10;42.30;;;;;;5013598;28;20145;-56
2021/11/17 12:15:22;;;;;;;15.98;9.40;;;23.10;42.00;;;;;;5011318;28;20107;-55
2021/11/17 12:17:48;;;;;;;15.73;8.57;;;23.10;42.20;;;;;;5028470;28;20022;-56
2021/11/17 12:20:29;;;;;;;10.90;8.25;;;23.10;42.10;;;;;;5012937;28;20173;-57
2021/11/17 12:22:57;;;;;;;13.75;8.60;;;23.10;42.20;;;;;;5013121;28;20104;-56
2021/11/17 12:25:32;;;;;;;14.65;8.48;;;23.10;42.20;;;;;;5011984;28;20053;-56
2021/11/17 12:28:06;;;;;;;13.73;8.38;;;23.10;42.30;;;;;;5027439;28;20036;-56
2021/11/17 12:30:43;;;;;;;15.18;8.52;;;23.00;42.20;;;;;;5028224;28;20061;-56
2021/11/17 12:33:18;;;;;;;14.05;8.02;;;23.00;42.40;;;;;;5012672;28;20026;-57
2021/11/17 12:36:15;;;;;;;11.23;7.15;;;23.00;42.30;;;;;;5011590;28;20088;-57
2021/11/17 12:38:43;;;;;;;12.07;7.68;;;23.00;42.50;;;;;;5013057;28;20030;-56
2021/11/17 12:41:12;;;;;;;11.82;7.10;;;23.00;42.40;;;;;;5027806;28;20022;-56
2021/11/17 12:43:44;;;;;;;11.57;7.60;;;23.00;42.50;;;;;;5012902;28;20044;-57
2021/11/17 12:46:12;;;;;;;13.07;7.38;;;22.90;42.40;;;;;;5012633;28;20072;-56
2021/11/17 12:48:47;;;;;;;13.02;7.68;;;23.00;42.50;;;;;;5012758;28;20030;-56
2021/11/17 12:51:28;;;;;;;14.00;7.43;;;23.00;42.60;;;;;;5010789;28;20040;-56
2021/11/17 12:54:17;;;;;;;12.27;7.07;;;23.00;42.70;;;;;;5027571;28;20041;-57
2021/11/17 12:56:46;;;;;;;12.38;7.13;;;23.00;42.70;;;;;;5010930;28;20037;-56
2021/11/17 12:59:18;;;;;;;14.57;7.55;;;23.00;42.70;;;;;;5010572;28;20022;-56
2021/11/17 13:01:47;;;;;;;11.48;7.82;;;23.00;42.70;;;;;;5027763;28;20029;-57
2021/11/17 13:04:12;;;;;;;13.10;7.43;;;23.00;42.70;;;;;;5012129;28;20058;-56
2021/11/17 13:06:41;;;;;;;12.32;7.53;;;22.90;42.70;;;;;;5012213;28;20079;-55
2021/11/17 13:09:12;;;;;;;13.32;6.95;;;22.90;42.70;;;;;;5012124;28;20038;-54
2021/11/17 13:11:54;;;;;;;18.73;8.10;;;23.00;42.80;;;;;;5011805;28;20041;-54
2021/11/17 13:14:24;;;;;;;13.27;7.18;;;22.90;42.80;;;;;;5012297;28;20026;-54
2021/11/17 13:16:50;;;;;;;14.23;7.65;;;22.90;42.80;;;;;;5012059;28;20108;-55
2021/11/17 13:19:30;;;;;;;16.75;9.75;;;22.90;42.80;;;;;;5026947;28;20125;-55
2021/11/17 13:22:24;;;;;;;17.13;10.13;;;22.90;42.80;;;;;;5011722;28;20029;-55
2021/11/17 13:24:51;;;;;;;21.80;12.25;;;22.90;42.90;;;;;;5010638;28;20129;-55
2021/11/17 13:27:19;;;;;;;22.42;14.38;;;22.90;42.90;;;;;;5011662;28;20022;-55
2021/11/17 13:29:50;;;;;;;24.45;13.68;;;22.90;42.90;;;;;;5026641;28;20050;-54
2021/11/17 13:32:16;;;;;;;20.52;13.48;;;22.90;42.90;;;;;;5011762;28;20034;-55
2021/11/17 13:34:49;;;;;;;24.65;14.13;;;22.90;42.90;;;;;;5011592;28;20021;-55
2021/11/17 13:37:39;;;;;;;28.98;14.82;;;22.90;42.90;;;;;;5011549;28;20399;-55
2021/11/17 13:40:11;;;;;;;23.08;12.70;;;22.90;43.00;;;;;;5011433;28;20460;-56
2021/11/17 13:42:37;;;;;;;21.17;12.88;;;22.90;43.00;;;;;;5011366;28;20041;-56
2021/11/17 13:45:09;;;;;;;23.30;12.52;;;22.90;43.10;;;;;;5011416;28;20034;-55
2021/11/17 13:47:34;;;;;;;25.52;13.23;;;22.90;43.10;;;;;;5011391;28;20456;-55
2021/11/17 13:50:01;;;;;;;21.63;12.68;;;22.90;43.10;;;;;;5011334;28;20095;-55
2021/11/17 13:52:31;;;;;;;25.63;12.75;;;22.80;43.00;;;;;;5011341;28;20030;-54
2021/11/17 13:54:57;;;;;;;21.67;12.57;;;22.90;43.10;;;;;;5011354;28;20053;-55
2021/11/17 13:57:23;;;;;;;21.27;12.48;;;22.80;43.10;;;;;;5009908;28;20510;-55
2021/11/17 13:59:48;;;;;;;19.35;11.30;;;22.80;43.10;;;;;;5009928;28;20041;-56
2021/11/17 14:02:14;;;;;;;25.67;12.40;;;22.80;43.10;;;;;;5011485;28;20451;-55
2021/11/17 14:04:40;;;;;;;24.77;12.43;;;22.80;43.10;;;;;;5011305;28;20502;-54
2021/11/17 14:07:05;;;;;;;21.30;11.95;;;22.80;43.10;;;;;;5011472;28;20044;-54
2021/11/17 14:09:31;;;;;;;19.33;11.50;;;22.80;43.20;;;;;;5010180;28;20028;-55
2021/11/17 14:11:57;;;;;;;24.95;12.05;;;22.80;43.20;;;;;;5011627;28;20053;-54
2021/11/17 14:14:23;;;;;;;22.25;12.48;;;22.90;43.30;;;;;;5011239;28;20078;-54
2021/11/17 14:16:48;;;;;;;25.52;11.88;;;22.80;43.20;;;;;;5010911;28;20535;-56
2021/11/17 14:19:14;;;;;;;21.40;12.18;;;22.80;43.20;;;;;;5011163;28;20033;-55
2021/11/17 14:21:40;;;;;;;20.65;11.50;;;22.80;43.30;;;;;;5011064;28;20048;-54
2021/11/17 14:24:05;;;;;;;23.55;11.70;;;22.80;43.30;;;;;;5010789;28;20032;-54
2021/11/17 14:26:32;;;;;;;24.83;12.25;;;22.80;43.40;;;;;;5010993;28;20148;-55
2021/11/17 14:29:03;;;;;;;27.98;13.38;;;22.80;43.40;;;;;;5025420;28;20025;-54
2021/11/17 14:31:30;;;;;;;25.15;13.10;;;22.80;43.40;;;;;;5010971;28;20049;-54
2021/11/17 14:33:58;;;;;;;25.73;12.73;;;22.80;43.40;;;;;;5026121;28;20030;-54
2021/11/17 14:36:25;;;;;;;27.13;14.43;;;22.80;43.40;;;;;;5010647;28;20060;-54
2021/11/17 14:38:52;;;;;;;29.50;16.10;;;22.80;43.40;;;;;;5010885;28;20471;-55
2021/11/17 14:41:17;;;;;;;30.02;15.18;;;22.80;43.50;;;;;;5009029;28;20388;-55
2021/11/17 14:43:43;;;;;;;29.05;14.43;;;22.80;43.50;;;;;;5010287;28;20026;-54
2021/11/17 14:46:08;;;;;;;31.52;16.15;;;22.80;43.50;;;;;;5010776;28;20053;-53
2021/11/17 14:48:34;;;;;;;27.67;15.27;;;22.80;43.50;;;;;;5010910;28;20104;-54
2021/11/17 14:50:59;;;;;;;30.70;16.27;;;22.80;43.50;;;;;;5010076;28;20030;-54
2021/11/17 14:53:25;;;;;;;34.35;17.38;;;22.80;43.50;;;;;;5010664;28;20022;-54
2021/11/17 14:55:51;;;;;;;36.78;19.75;;;22.70;43.50;;;;;;5010072;28;20204;-55
2021/11/17 14:58:16;;;;;;;35.90;18.55;;;22.70;43.50;;;;;;5010460;28;20025;-54
2021/11/17 15:00:48;;;;;;;31.63;17.48;;;22.70;43.50;;;;;;5010445;28;20030;-55
2021/11/17 15:03:13;;;;;;;25.48;14.52;;;22.70;43.60;;;;;;5010122;28;20472;-55
2021/11/17 15:05:39;;;;;;;26.23;14.75;;;22.70;43.60;;;;;;5010512;28;20044;-54
2021/11/17 15:08:04;;;;;;;29.35;14.93;;;22.70;43.60;;;;;;5008688;28;20120;-54
2021/11/17 15:10:31;;;;;;;28.60;14.48;;;22.70;43.60;;;;;;5010368;28;20034;-55
2021/11/17 15:12:56;;;;;;;26.90;15.20;;;22.70;43.70;;;;;;5025371;28;20026;-54
2021/11/17 15:15:31;;;;;;;29.30;15.23;;;22.80;43.70;;;;;;5009716;28;20080;-54
2021/11/17 15:17:56;;;;;;;32.17;15.82;;;22.80;43.70;;;;;;5025266;28;20448;-55
2021/11/17 15:20:22;;;;;;;27.63;14.38;;;22.80;43.70;;;;;;5009676;28;20030;-55
2021/11/17 15:22:49;;;;;;;29.17;15.60;;;22.90;43.70;;;;;;5010151;28;20459;-55
2021/11/17 15:25:23;;;;;;;30.27;15.15;;;22.90;43.60;;;;;;5008580;28;20395;-55
2021/11/17 15:27:58;;;;;;;28.75;15.23;;;23.00;43.60;;;;;;5009864;28;20523;-55
2021/11/17 15:30:27;;;;;;;27.48;14.20;;;23.00;43.50;;;;;;5025113;28;20058;-55
2021/11/17 15:32:54;;;;;;;26.48;13.75;;;23.00;43.40;;;;;;5010010;28;20053;-55
2021/11/17 15:35:21;;;;;;;28.13;13.63;;;23.10;43.40;;;;;;5009622;28;20033;-55
2021/11/17 15:37:49;;;;;;;27.85;14.13;;;23.10;43.30;;;;;;5024969;28;20029;-54
2021/11/17 15:40:16;;;;;;;23.00;12.32;;;23.10;43.20;;;;;;5024395;28;20117;-54
2021/11/17 15:42:42;;;;;;;27.52;12.77;;;23.10;43.20;;;;;;5009860;28;20030;-55